sensor_id;sensor_type;location;lat;lon;timestamp;P1;durP1;ratioP1;P2;durP2;ratioP2
25721;SDS011;13578;53.450;15.496;2023-12-20T00:02:02;8.77;;;5.72;;
25721;SDS011;13578;53.450;15.496;2023-12-20T00:05:02;6.70;;;6.00;;
25721;SDS011;13578;53.450;15.496;2023-12-20T00:08:03;5.88;;;5.28;;
25721;SDS011;13578;53.450;15.496;2023-12-20T00:11:05;6.75;;;5.45;;
25721;SDS011;13578;53.450;15.496;2023-12-20T00:14:05;6.57;;;5.60;;
25721;SDS011;13578;53.450;15.496;2023-12-20T00:17:06;7.05;;;6.03;;
25721;SDS011;13578;53.450;15.496;2023-12-20T00:20:08;5.63;;;5.13;;
25721;SDS011;13578;53.450;15.496;2023-12-20T00:23:09;6.43;;;5.82;;
25721;SDS011;13578;53.450;15.496;2023-12-20T00:26:09;7.38;;;5.43;;
25721;SDS011;13578;53.450;15.496;2023-12-20T00:29:10;5.95;;;5.35;;
25721;SDS011;13578;53.450;15.496;2023-12-20T00:32:10;8.00;;;6.00;;
25721;SDS011;13578;53.450;15.496;2023-12-20T00:35:11;7.95;;;6.32;;
25721;SDS011;13578;53.450;15.496;2023-12-20T00:38:14;8.68;;;6.35;;
25721;SDS011;13578;53.450;15.496;2023-12-20T00:41:14;9.57;;;6.65;;
25721;SDS011;13578;53.450;15.496;2023-12-20T00:44:15;10.15;;;6.75;;
25721;SDS011;13578;53.450;15.496;2023-12-20T00:47:16;12.77;;;6.85;;
25721;SDS011;13578;53.450;15.496;2023-12-20T00:50:17;14.75;;;7.55;;
25721;SDS011;13578;53.450;15.496;2023-12-20T00:53:17;12.05;;;7.07;;
25721;SDS011;13578;53.450;15.496;2023-12-20T00:56:18;17.35;;;7.68;;
25721;SDS011;13578;53.450;15.496;2023-12-20T00:59:18;12.20;;;7.57;;
25721;SDS011;13578;53.450;15.496;2023-12-20T01:02:19;9.68;;;6.47;;
25721;SDS011;13578;53.450;15.496;2023-12-20T01:05:20;12.90;;;7.25;;
25721;SDS011;13578;53.450;15.496;2023-12-20T01:08:23;10.90;;;7.13;;
25721;SDS011;13578;53.450;15.496;2023-12-20T01:11:23;11.95;;;7.05;;
25721;SDS011;13578;53.450;15.496;2023-12-20T01:14:24;10.05;;;6.88;;
25721;SDS011;13578;53.450;15.496;2023-12-20T01:17:24;7.15;;;5.82;;
25721;SDS011;13578;53.450;15.496;2023-12-20T01:20:25;12.13;;;6.45;;
25721;SDS011;13578;53.450;15.496;2023-12-20T01:23:26;16.73;;;6.30;;
25721;SDS011;13578;53.450;15.496;2023-12-20T01:26:26;8.38;;;6.57;;
25721;SDS011;13578;53.450;15.496;2023-12-20T01:29:27;10.98;;;6.68;;
25721;SDS011;13578;53.450;15.496;2023-12-20T01:32:28;10.30;;;6.93;;
25721;SDS011;13578;53.450;15.496;2023-12-20T01:35:28;9.57;;;6.18;;
25721;SDS011;13578;53.450;15.496;2023-12-20T01:38:29;11.82;;;7.65;;
25721;SDS011;13578;53.450;15.496;2023-12-20T01:41:29;14.18;;;7.75;;
25721;SDS011;13578;53.450;15.496;2023-12-20T01:44:30;17.58;;;9.23;;
25721;SDS011;13578;53.450;15.496;2023-12-20T01:47:31;18.17;;;8.25;;
25721;SDS011;13578;53.450;15.496;2023-12-20T01:50:31;17.15;;;8.65;;
25721;SDS011;13578;53.450;15.496;2023-12-20T01:53:33;16.15;;;6.85;;
25721;SDS011;13578;53.450;15.496;2023-12-20T01:56:35;6.90;;;4.88;;
25721;SDS011;13578;53.450;15.496;2023-12-20T01:59:36;12.32;;;4.88;;
25721;SDS011;13578;53.450;15.496;2023-12-20T02:02:39;16.50;;;5.05;;
25721;SDS011;13578;53.450;15.496;2023-12-20T02:05:41;9.63;;;4.40;;
25721;SDS011;13578;53.450;15.496;2023-12-20T02:08:41;7.00;;;3.95;;
25721;SDS011;13578;53.450;15.496;2023-12-20T02:11:42;6.30;;;4.40;;
25721;SDS011;13578;53.450;15.496;2023-12-20T02:14:43;6.95;;;4.28;;
25721;SDS011;13578;53.450;15.496;2023-12-20T02:17:44;7.03;;;3.25;;
25721;SDS011;13578;53.450;15.496;2023-12-20T02:20:46;8.77;;;3.50;;
25721;SDS011;13578;53.450;15.496;2023-12-20T02:23:47;8.82;;;3.63;;
25721;SDS011;13578;53.450;15.496;2023-12-20T02:26:48;6.65;;;4.03;;
25721;SDS011;13578;53.450;15.496;2023-12-20T02:29:48;3.95;;;3.10;;
25721;SDS011;13578;53.450;15.496;2023-12-20T02:32:50;6.85;;;3.65;;
25721;SDS011;13578;53.450;15.496;2023-12-20T02:35:52;4.53;;;3.88;;
25721;SDS011;13578;53.450;15.496;2023-12-20T02:38:53;9.77;;;3.00;;
25721;SDS011;13578;53.450;15.496;2023-12-20T02:41:53;5.32;;;3.65;;
25721;SDS011;13578;53.450;15.496;2023-12-20T02:44:54;7.28;;;4.03;;
25721;SDS011;13578;53.450;15.496;2023-12-20T02:47:55;13.30;;;5.05;;
25721;SDS011;13578;53.450;15.496;2023-12-20T02:50:55;6.50;;;4.63;;
25721;SDS011;13578;53.450;15.496;2023-12-20T02:53:56;7.40;;;4.90;;
25721;SDS011;13578;53.450;15.496;2023-12-20T02:56:57;5.35;;;4.13;;
25721;SDS011;13578;53.450;15.496;2023-12-20T02:59:57;4.68;;;3.78;;
25721;SDS011;13578;53.450;15.496;2023-12-20T03:02:58;6.45;;;4.22;;
25721;SDS011;13578;53.450;15.496;2023-12-20T03:05:59;7.97;;;4.43;;
25721;SDS011;13578;53.450;15.496;2023-12-20T03:09:00;8.45;;;4.82;;
25721;SDS011;13578;53.450;15.496;2023-12-20T03:12:01;10.38;;;3.80;;
25721;SDS011;13578;53.450;15.496;2023-12-20T03:15:02;5.47;;;4.28;;
25721;SDS011;13578;53.450;15.496;2023-12-20T03:18:03;8.13;;;4.40;;
25721;SDS011;13578;53.450;15.496;2023-12-20T03:21:04;4.00;;;3.45;;
25721;SDS011;13578;53.450;15.496;2023-12-20T03:24:05;6.80;;;4.65;;
25721;SDS011;13578;53.450;15.496;2023-12-20T03:27:05;4.88;;;3.90;;
25721;SDS011;13578;53.450;15.496;2023-12-20T03:30:06;10.60;;;4.07;;
25721;SDS011;13578;53.450;15.496;2023-12-20T03:33:07;9.73;;;5.00;;
25721;SDS011;13578;53.450;15.496;2023-12-20T03:36:08;14.75;;;4.47;;
25721;SDS011;13578;53.450;15.496;2023-12-20T03:39:08;8.35;;;4.35;;
25721;SDS011;13578;53.450;15.496;2023-12-20T03:42:10;6.05;;;4.13;;
25721;SDS011;13578;53.450;15.496;2023-12-20T03:45:10;6.03;;;4.80;;
25721;SDS011;13578;53.450;15.496;2023-12-20T03:48:11;6.70;;;5.60;;
25721;SDS011;13578;53.450;15.496;2023-12-20T03:51:12;9.20;;;6.25;;
25721;SDS011;13578;53.450;15.496;2023-12-20T03:54:12;10.38;;;6.35;;
25721;SDS011;13578;53.450;15.496;2023-12-20T03:57:13;11.98;;;6.85;;
25721;SDS011;13578;53.450;15.496;2023-12-20T04:00:14;9.23;;;6.32;;
25721;SDS011;13578;53.450;15.496;2023-12-20T04:03:15;9.27;;;5.68;;
25721;SDS011;13578;53.450;15.496;2023-12-20T04:06:16;22.23;;;5.32;;
25721;SDS011;13578;53.450;15.496;2023-12-20T04:09:18;9.77;;;6.38;;
25721;SDS011;13578;53.450;15.496;2023-12-20T04:12:18;6.50;;;5.22;;
25721;SDS011;13578;53.450;15.496;2023-12-20T04:15:19;8.43;;;4.75;;
25721;SDS011;13578;53.450;15.496;2023-12-20T04:18:19;8.10;;;5.50;;
25721;SDS011;13578;53.450;15.496;2023-12-20T04:21:20;15.02;;;6.00;;
25721;SDS011;13578;53.450;15.496;2023-12-20T04:24:21;13.30;;;6.25;;
25721;SDS011;13578;53.450;15.496;2023-12-20T04:27:22;11.82;;;6.13;;
25721;SDS011;13578;53.450;15.496;2023-12-20T04:30:23;14.57;;;6.45;;
25721;SDS011;13578;53.450;15.496;2023-12-20T04:33:24;15.73;;;6.93;;
25721;SDS011;13578;53.450;15.496;2023-12-20T04:36:24;19.55;;;8.57;;
25721;SDS011;13578;53.450;15.496;2023-12-20T04:39:27;23.05;;;9.55;;
25721;SDS011;13578;53.450;15.496;2023-12-20T04:42:27;18.23;;;8.27;;
25721;SDS011;13578;53.450;15.496;2023-12-20T04:45:28;29.38;;;8.60;;
25721;SDS011;13578;53.450;15.496;2023-12-20T04:48:28;25.45;;;10.98;;
25721;SDS011;13578;53.450;15.496;2023-12-20T04:51:29;37.50;;;11.57;;
25721;SDS011;13578;53.450;15.496;2023-12-20T04:54:29;40.05;;;12.23;;
25721;SDS011;13578;53.450;15.496;2023-12-20T04:57:30;42.65;;;12.55;;
25721;SDS011;13578;53.450;15.496;2023-12-20T05:00:31;28.63;;;11.25;;
25721;SDS011;13578;53.450;15.496;2023-12-20T05:03:31;29.50;;;10.48;;
25721;SDS011;13578;53.450;15.496;2023-12-20T05:06:32;42.45;;;10.63;;
25721;SDS011;13578;53.450;15.496;2023-12-20T05:09:32;32.78;;;9.38;;
25721;SDS011;13578;53.450;15.496;2023-12-20T05:12:33;16.17;;;6.82;;
25721;SDS011;13578;53.450;15.496;2023-12-20T05:15:34;26.17;;;8.60;;
25721;SDS011;13578;53.450;15.496;2023-12-20T05:18:35;18.35;;;7.35;;
25721;SDS011;13578;53.450;15.496;2023-12-20T05:21:36;9.65;;;5.57;;
25721;SDS011;13578;53.450;15.496;2023-12-20T05:24:36;10.68;;;5.82;;
25721;SDS011;13578;53.450;15.496;2023-12-20T05:27:37;6.55;;;5.30;;
25721;SDS011;13578;53.450;15.496;2023-12-20T05:30:37;9.32;;;5.63;;
25721;SDS011;13578;53.450;15.496;2023-12-20T05:33:38;8.52;;;5.60;;
25721;SDS011;13578;53.450;15.496;2023-12-20T05:36:39;11.65;;;8.30;;
25721;SDS011;13578;53.450;15.496;2023-12-20T05:39:39;16.50;;;7.47;;
25721;SDS011;13578;53.450;15.496;2023-12-20T05:42:40;11.20;;;7.20;;
25721;SDS011;13578;53.450;15.496;2023-12-20T05:45:41;12.30;;;6.93;;
25721;SDS011;13578;53.450;15.496;2023-12-20T05:48:42;7.68;;;5.88;;
25721;SDS011;13578;53.450;15.496;2023-12-20T05:51:43;25.17;;;6.93;;
25721;SDS011;13578;53.450;15.496;2023-12-20T05:54:43;9.63;;;5.68;;
25721;SDS011;13578;53.450;15.496;2023-12-20T05:57:44;8.93;;;6.72;;
25721;SDS011;13578;53.450;15.496;2023-12-20T06:00:44;12.05;;;6.70;;
25721;SDS011;13578;53.450;15.496;2023-12-20T06:03:45;13.82;;;6.40;;
25721;SDS011;13578;53.450;15.496;2023-12-20T06:06:46;12.18;;;6.13;;
25721;SDS011;13578;53.450;15.496;2023-12-20T06:09:46;17.13;;;6.30;;
25721;SDS011;13578;53.450;15.496;2023-12-20T06:12:47;15.45;;;7.82;;
25721;SDS011;13578;53.450;15.496;2023-12-20T06:15:50;13.15;;;6.90;;
25721;SDS011;13578;53.450;15.496;2023-12-20T06:18:51;11.10;;;7.13;;
25721;SDS011;13578;53.450;15.496;2023-12-20T06:21:51;15.00;;;8.65;;
25721;SDS011;13578;53.450;15.496;2023-12-20T06:24:52;12.80;;;8.93;;
25721;SDS011;13578;53.450;15.496;2023-12-20T06:27:53;14.27;;;8.13;;
25721;SDS011;13578;53.450;15.496;2023-12-20T06:30:53;25.05;;;8.13;;
25721;SDS011;13578;53.450;15.496;2023-12-20T06:33:55;19.10;;;8.60;;
25721;SDS011;13578;53.450;15.496;2023-12-20T06:36:57;16.08;;;8.98;;
25721;SDS011;13578;53.450;15.496;2023-12-20T06:39:58;15.38;;;8.23;;
25721;SDS011;13578;53.450;15.496;2023-12-20T06:42:58;14.02;;;8.38;;
25721;SDS011;13578;53.450;15.496;2023-12-20T06:46:00;14.77;;;7.53;;
25721;SDS011;13578;53.450;15.496;2023-12-20T06:49:01;10.38;;;6.88;;
25721;SDS011;13578;53.450;15.496;2023-12-20T06:52:02;11.25;;;6.80;;
25721;SDS011;13578;53.450;15.496;2023-12-20T06:55:03;15.65;;;7.03;;
25721;SDS011;13578;53.450;15.496;2023-12-20T06:58:04;13.32;;;7.28;;
25721;SDS011;13578;53.450;15.496;2023-12-20T07:01:05;12.82;;;7.43;;
25721;SDS011;13578;53.450;15.496;2023-12-20T07:04:10;22.13;;;7.65;;
25721;SDS011;13578;53.450;15.496;2023-12-20T07:07:11;12.27;;;8.10;;
25721;SDS011;13578;53.450;15.496;2023-12-20T07:10:12;22.67;;;8.68;;
25721;SDS011;13578;53.450;15.496;2023-12-20T07:13:13;24.65;;;8.10;;
25721;SDS011;13578;53.450;15.496;2023-12-20T07:16:14;17.50;;;8.50;;
25721;SDS011;13578;53.450;15.496;2023-12-20T07:19:15;11.82;;;7.88;;
25721;SDS011;13578;53.450;15.496;2023-12-20T07:22:15;18.90;;;8.52;;
25721;SDS011;13578;53.450;15.496;2023-12-20T07:25:16;21.70;;;6.93;;
25721;SDS011;13578;53.450;15.496;2023-12-20T07:28:17;21.75;;;7.00;;
25721;SDS011;13578;53.450;15.496;2023-12-20T07:31:17;13.05;;;4.28;;
25721;SDS011;13578;53.450;15.496;2023-12-20T07:34:18;19.85;;;5.20;;
25721;SDS011;13578;53.450;15.496;2023-12-20T07:37:19;13.07;;;4.35;;
25721;SDS011;13578;53.450;15.496;2023-12-20T07:40:20;6.97;;;3.65;;
25721;SDS011;13578;53.450;15.496;2023-12-20T07:43:21;6.47;;;4.05;;
25721;SDS011;13578;53.450;15.496;2023-12-20T07:46:21;14.02;;;5.00;;
25721;SDS011;13578;53.450;15.496;2023-12-20T07:49:24;13.45;;;4.57;;
25721;SDS011;13578;53.450;15.496;2023-12-20T07:52:25;13.30;;;5.13;;
25721;SDS011;13578;53.450;15.496;2023-12-20T07:55:26;10.45;;;4.65;;
25721;SDS011;13578;53.450;15.496;2023-12-20T07:58:27;10.98;;;4.93;;
25721;SDS011;13578;53.450;15.496;2023-12-20T08:01:30;16.63;;;4.57;;
25721;SDS011;13578;53.450;15.496;2023-12-20T08:04:30;6.18;;;4.22;;
25721;SDS011;13578;53.450;15.496;2023-12-20T08:07:31;17.38;;;5.45;;
25721;SDS011;13578;53.450;15.496;2023-12-20T08:10:32;9.35;;;4.60;;
25721;SDS011;13578;53.450;15.496;2023-12-20T08:13:32;13.40;;;5.38;;
25721;SDS011;13578;53.450;15.496;2023-12-20T08:16:33;5.75;;;4.53;;
25721;SDS011;13578;53.450;15.496;2023-12-20T08:19:34;18.20;;;4.65;;
25721;SDS011;13578;53.450;15.496;2023-12-20T08:22:34;7.63;;;4.97;;
25721;SDS011;13578;53.450;15.496;2023-12-20T08:25:35;17.15;;;5.63;;
25721;SDS011;13578;53.450;15.496;2023-12-20T08:28:36;17.35;;;5.75;;
25721;SDS011;13578;53.450;15.496;2023-12-20T08:31:37;16.00;;;5.60;;
25721;SDS011;13578;53.450;15.496;2023-12-20T08:34:38;11.23;;;5.25;;
25721;SDS011;13578;53.450;15.496;2023-12-20T08:37:39;9.05;;;6.15;;
25721;SDS011;13578;53.450;15.496;2023-12-20T08:40:39;12.80;;;6.20;;
25721;SDS011;13578;53.450;15.496;2023-12-20T08:43:40;17.63;;;6.63;;
25721;SDS011;13578;53.450;15.496;2023-12-20T08:46:41;14.23;;;5.82;;
25721;SDS011;13578;53.450;15.496;2023-12-20T08:49:41;8.02;;;5.97;;
25721;SDS011;13578;53.450;15.496;2023-12-20T08:52:42;8.38;;;5.88;;
25721;SDS011;13578;53.450;15.496;2023-12-20T08:55:43;9.40;;;5.70;;
25721;SDS011;13578;53.450;15.496;2023-12-20T08:58:44;14.25;;;6.20;;
25721;SDS011;13578;53.450;15.496;2023-12-20T09:01:46;21.70;;;7.10;;
25721;SDS011;13578;53.450;15.496;2023-12-20T09:04:48;16.40;;;6.18;;
25721;SDS011;13578;53.450;15.496;2023-12-20T09:07:49;15.60;;;7.53;;
25721;SDS011;13578;53.450;15.496;2023-12-20T09:10:49;21.85;;;6.18;;
25721;SDS011;13578;53.450;15.496;2023-12-20T09:13:50;9.27;;;5.32;;
25721;SDS011;13578;53.450;15.496;2023-12-20T09:16:51;15.73;;;5.75;;
25721;SDS011;13578;53.450;15.496;2023-12-20T09:19:51;16.08;;;5.68;;
25721;SDS011;13578;53.450;15.496;2023-12-20T09:22:54;9.82;;;5.18;;
25721;SDS011;13578;53.450;15.496;2023-12-20T09:25:54;10.98;;;5.82;;
25721;SDS011;13578;53.450;15.496;2023-12-20T09:28:55;16.80;;;6.22;;
25721;SDS011;13578;53.450;15.496;2023-12-20T09:31:55;13.20;;;6.43;;
25721;SDS011;13578;53.450;15.496;2023-12-20T09:34:57;9.07;;;5.97;;
25721;SDS011;13578;53.450;15.496;2023-12-20T09:37:58;11.63;;;6.25;;
25721;SDS011;13578;53.450;15.496;2023-12-20T09:40:58;11.10;;;6.38;;
25721;SDS011;13578;53.450;15.496;2023-12-20T09:43:59;30.15;;;6.53;;
25721;SDS011;13578;53.450;15.496;2023-12-20T09:47:03;16.15;;;6.10;;
25721;SDS011;13578;53.450;15.496;2023-12-20T09:50:04;10.00;;;4.85;;
25721;SDS011;13578;53.450;15.496;2023-12-20T09:53:07;4.90;;;4.15;;
25721;SDS011;13578;53.450;15.496;2023-12-20T09:56:09;5.68;;;5.00;;
25721;SDS011;13578;53.450;15.496;2023-12-20T09:59:11;8.48;;;4.38;;
25721;SDS011;13578;53.450;15.496;2023-12-20T10:02:13;9.10;;;5.63;;
25721;SDS011;13578;53.450;15.496;2023-12-20T10:05:17;15.35;;;6.13;;
25721;SDS011;13578;53.450;15.496;2023-12-20T10:08:21;12.35;;;5.80;;
25721;SDS011;13578;53.450;15.496;2023-12-20T10:11:22;7.57;;;5.82;;
25721;SDS011;13578;53.450;15.496;2023-12-20T10:14:23;12.43;;;6.63;;
25721;SDS011;13578;53.450;15.496;2023-12-20T10:17:24;20.48;;;7.97;;
25721;SDS011;13578;53.450;15.496;2023-12-20T10:20:29;18.05;;;6.68;;
25721;SDS011;13578;53.450;15.496;2023-12-20T10:23:30;13.95;;;5.72;;
25721;SDS011;13578;53.450;15.496;2023-12-20T10:26:32;13.55;;;6.50;;
25721;SDS011;13578;53.450;15.496;2023-12-20T10:29:36;20.25;;;8.20;;
25721;SDS011;13578;53.450;15.496;2023-12-20T10:32:37;15.15;;;6.10;;
25721;SDS011;13578;53.450;15.496;2023-12-20T10:35:38;16.35;;;6.60;;
25721;SDS011;13578;53.450;15.496;2023-12-20T10:38:39;21.10;;;6.95;;
25721;SDS011;13578;53.450;15.496;2023-12-20T10:41:42;10.50;;;5.72;;
25721;SDS011;13578;53.450;15.496;2023-12-20T10:44:45;13.57;;;6.05;;
25721;SDS011;13578;53.450;15.496;2023-12-20T10:47:47;14.85;;;6.53;;
25721;SDS011;13578;53.450;15.496;2023-12-20T10:50:50;8.43;;;5.75;;
25721;SDS011;13578;53.450;15.496;2023-12-20T10:53:51;20.25;;;6.70;;
25721;SDS011;13578;53.450;15.496;2023-12-20T10:56:53;15.88;;;6.05;;
25721;SDS011;13578;53.450;15.496;2023-12-20T10:59:57;13.00;;;5.47;;
25721;SDS011;13578;53.450;15.496;2023-12-20T11:03:04;11.10;;;6.68;;
25721;SDS011;13578;53.450;15.496;2023-12-20T11:06:12;20.85;;;6.78;;
25721;SDS011;13578;53.450;15.496;2023-12-20T11:09:36;21.33;;;7.07;;
25721;SDS011;13578;53.450;15.496;2023-12-20T11:16:16;22.63;;;7.32;;
25721;SDS011;13578;53.450;15.496;2023-12-20T11:19:17;29.38;;;6.80;;
25721;SDS011;13578;53.450;15.496;2023-12-20T11:22:20;22.95;;;6.85;;
25721;SDS011;13578;53.450;15.496;2023-12-20T11:25:21;20.42;;;6.50;;
25721;SDS011;13578;53.450;15.496;2023-12-20T11:28:23;13.52;;;7.18;;
25721;SDS011;13578;53.450;15.496;2023-12-20T11:31:25;18.92;;;5.45;;
25721;SDS011;13578;53.450;15.496;2023-12-20T11:34:28;16.52;;;6.20;;
25721;SDS011;13578;53.450;15.496;2023-12-20T11:37:36;16.08;;;6.28;;
25721;SDS011;13578;53.450;15.496;2023-12-20T11:40:38;12.75;;;5.53;;
25721;SDS011;13578;53.450;15.496;2023-12-20T11:43:38;18.52;;;6.32;;
25721;SDS011;13578;53.450;15.496;2023-12-20T11:46:39;21.70;;;7.50;;
25721;SDS011;13578;53.450;15.496;2023-12-20T11:49:40;12.18;;;5.80;;
25721;SDS011;13578;53.450;15.496;2023-12-20T11:52:40;23.63;;;5.75;;
25721;SDS011;13578;53.450;15.496;2023-12-20T11:55:41;10.90;;;5.82;;
25721;SDS011;13578;53.450;15.496;2023-12-20T11:58:42;22.38;;;6.05;;
25721;SDS011;13578;53.450;15.496;2023-12-20T12:01:49;21.52;;;6.40;;
25721;SDS011;13578;53.450;15.496;2023-12-20T12:04:50;20.08;;;5.57;;
25721;SDS011;13578;53.450;15.496;2023-12-20T12:07:51;21.05;;;6.43;;
25721;SDS011;13578;53.450;15.496;2023-12-20T12:10:52;26.67;;;8.32;;
25721;SDS011;13578;53.450;15.496;2023-12-20T12:13:52;17.85;;;6.32;;
25721;SDS011;13578;53.450;15.496;2023-12-20T12:16:53;15.30;;;6.10;;
25721;SDS011;13578;53.450;15.496;2023-12-20T12:20:01;14.70;;;5.63;;
25721;SDS011;13578;53.450;15.496;2023-12-20T12:23:06;25.02;;;6.45;;
25721;SDS011;13578;53.450;15.496;2023-12-20T12:26:07;20.92;;;5.80;;
25721;SDS011;13578;53.450;15.496;2023-12-20T12:29:09;14.85;;;5.70;;
25721;SDS011;13578;53.450;15.496;2023-12-20T12:32:10;8.68;;;4.90;;
25721;SDS011;13578;53.450;15.496;2023-12-20T12:35:10;16.33;;;6.18;;
25721;SDS011;13578;53.450;15.496;2023-12-20T12:38:11;16.35;;;5.45;;
25721;SDS011;13578;53.450;15.496;2023-12-20T12:41:14;13.95;;;5.93;;
25721;SDS011;13578;53.450;15.496;2023-12-20T12:44:16;14.20;;;5.28;;
25721;SDS011;13578;53.450;15.496;2023-12-20T12:47:18;21.52;;;6.15;;
25721;SDS011;13578;53.450;15.496;2023-12-20T12:50:19;8.57;;;4.60;;
25721;SDS011;13578;53.450;15.496;2023-12-20T12:53:19;12.95;;;5.18;;
25721;SDS011;13578;53.450;15.496;2023-12-20T12:56:20;22.23;;;6.60;;
25721;SDS011;13578;53.450;15.496;2023-12-20T12:59:22;17.60;;;4.82;;
25721;SDS011;13578;53.450;15.496;2023-12-20T13:02:23;16.88;;;4.32;;
25721;SDS011;13578;53.450;15.496;2023-12-20T13:05:23;13.52;;;4.53;;
25721;SDS011;13578;53.450;15.496;2023-12-20T13:08:24;11.25;;;4.97;;
25721;SDS011;13578;53.450;15.496;2023-12-20T13:11:24;12.48;;;4.30;;
25721;SDS011;13578;53.450;15.496;2023-12-20T13:14:25;14.15;;;5.30;;
25721;SDS011;13578;53.450;15.496;2023-12-20T13:17:26;18.83;;;5.35;;
25721;SDS011;13578;53.450;15.496;2023-12-20T13:20:26;14.68;;;4.80;;
25721;SDS011;13578;53.450;15.496;2023-12-20T13:23:27;14.05;;;4.82;;
25721;SDS011;13578;53.450;15.496;2023-12-20T13:26:28;14.40;;;4.72;;
25721;SDS011;13578;53.450;15.496;2023-12-20T13:29:28;17.13;;;4.70;;
25721;SDS011;13578;53.450;15.496;2023-12-20T13:32:29;12.73;;;4.10;;
25721;SDS011;13578;53.450;15.496;2023-12-20T13:35:29;7.47;;;3.80;;
25721;SDS011;13578;53.450;15.496;2023-12-20T13:38:30;6.95;;;4.03;;
25721;SDS011;13578;53.450;15.496;2023-12-20T13:41:31;9.27;;;4.45;;
25721;SDS011;13578;53.450;15.496;2023-12-20T13:44:32;11.10;;;4.57;;
25721;SDS011;13578;53.450;15.496;2023-12-20T13:47:33;11.30;;;4.40;;
25721;SDS011;13578;53.450;15.496;2023-12-20T13:50:33;9.30;;;4.55;;
25721;SDS011;13578;53.450;15.496;2023-12-20T13:53:34;24.70;;;5.45;;
25721;SDS011;13578;53.450;15.496;2023-12-20T13:56:35;13.82;;;4.50;;
25721;SDS011;13578;53.450;15.496;2023-12-20T13:59:35;9.00;;;3.97;;
25721;SDS011;13578;53.450;15.496;2023-12-20T14:02:37;9.73;;;4.63;;
25721;SDS011;13578;53.450;15.496;2023-12-20T14:05:38;5.95;;;4.32;;
25721;SDS011;13578;53.450;15.496;2023-12-20T14:08:38;6.63;;;4.53;;
25721;SDS011;13578;53.450;15.496;2023-12-20T14:11:40;12.38;;;5.25;;
25721;SDS011;13578;53.450;15.496;2023-12-20T14:14:41;11.00;;;4.38;;
25721;SDS011;13578;53.450;15.496;2023-12-20T14:17:43;4.63;;;3.90;;
25721;SDS011;13578;53.450;15.496;2023-12-20T14:20:43;7.40;;;3.72;;
25721;SDS011;13578;53.450;15.496;2023-12-20T14:23:44;10.75;;;4.43;;
25721;SDS011;13578;53.450;15.496;2023-12-20T14:26:46;4.63;;;4.22;;
25721;SDS011;13578;53.450;15.496;2023-12-20T14:29:47;12.60;;;4.95;;
25721;SDS011;13578;53.450;15.496;2023-12-20T14:32:47;8.40;;;4.80;;
25721;SDS011;13578;53.450;15.496;2023-12-20T14:35:48;6.80;;;3.75;;
25721;SDS011;13578;53.450;15.496;2023-12-20T14:38:49;4.78;;;4.38;;
25721;SDS011;13578;53.450;15.496;2023-12-20T14:41:50;7.20;;;3.85;;
25721;SDS011;13578;53.450;15.496;2023-12-20T14:44:51;9.73;;;3.92;;
25721;SDS011;13578;53.450;15.496;2023-12-20T14:47:52;8.15;;;4.50;;
25721;SDS011;13578;53.450;15.496;2023-12-20T14:50:53;5.35;;;4.18;;
25721;SDS011;13578;53.450;15.496;2023-12-20T14:53:54;12.68;;;5.15;;
25721;SDS011;13578;53.450;15.496;2023-12-20T14:56:54;4.60;;;3.35;;
25721;SDS011;13578;53.450;15.496;2023-12-20T14:59:56;8.07;;;4.00;;
25721;SDS011;13578;53.450;15.496;2023-12-20T15:02:57;4.78;;;3.55;;
25721;SDS011;13578;53.450;15.496;2023-12-20T15:05:58;5.70;;;3.60;;
25721;SDS011;13578;53.450;15.496;2023-12-20T15:08:59;9.90;;;3.55;;
25721;SDS011;13578;53.450;15.496;2023-12-20T15:12:00;7.97;;;3.42;;
25721;SDS011;13578;53.450;15.496;2023-12-20T15:15:01;4.45;;;3.08;;
25721;SDS011;13578;53.450;15.496;2023-12-20T15:18:02;6.50;;;3.20;;
25721;SDS011;13578;53.450;15.496;2023-12-20T15:21:05;10.52;;;3.60;;
25721;SDS011;13578;53.450;15.496;2023-12-20T15:24:06;9.73;;;3.70;;
25721;SDS011;13578;53.450;15.496;2023-12-20T15:27:13;4.53;;;3.10;;
25721;SDS011;13578;53.450;15.496;2023-12-20T15:30:14;10.43;;;4.30;;
25721;SDS011;13578;53.450;15.496;2023-12-20T15:33:15;4.07;;;3.47;;
25721;SDS011;13578;53.450;15.496;2023-12-20T15:36:15;6.00;;;3.80;;
25721;SDS011;13578;53.450;15.496;2023-12-20T15:39:16;4.30;;;3.28;;
25721;SDS011;13578;53.450;15.496;2023-12-20T15:42:17;4.78;;;3.90;;
25721;SDS011;13578;53.450;15.496;2023-12-20T15:45:17;10.02;;;5.28;;
25721;SDS011;13578;53.450;15.496;2023-12-20T15:48:18;10.82;;;4.10;;
25721;SDS011;13578;53.450;15.496;2023-12-20T15:51:21;12.68;;;5.20;;
25721;SDS011;13578;53.450;15.496;2023-12-20T15:54:22;6.75;;;3.97;;
25721;SDS011;13578;53.450;15.496;2023-12-20T15:57:22;8.77;;;4.38;;
25721;SDS011;13578;53.450;15.496;2023-12-20T16:00:23;9.77;;;4.72;;
25721;SDS011;13578;53.450;15.496;2023-12-20T16:03:23;5.95;;;3.90;;
25721;SDS011;13578;53.450;15.496;2023-12-20T16:06:24;3.63;;;3.33;;
25721;SDS011;13578;53.450;15.496;2023-12-20T16:09:25;7.20;;;3.85;;
25721;SDS011;13578;53.450;15.496;2023-12-20T16:12:25;5.97;;;3.50;;
25721;SDS011;13578;53.450;15.496;2023-12-20T16:15:26;11.77;;;4.82;;
25721;SDS011;13578;53.450;15.496;2023-12-20T16:18:27;8.07;;;3.88;;
25721;SDS011;13578;53.450;15.496;2023-12-20T16:21:28;6.97;;;3.78;;
25721;SDS011;13578;53.450;15.496;2023-12-20T16:24:28;6.55;;;3.97;;
25721;SDS011;13578;53.450;15.496;2023-12-20T16:27:31;24.05;;;4.43;;
25721;SDS011;13578;53.450;15.496;2023-12-20T16:30:32;5.85;;;3.75;;
25721;SDS011;13578;53.450;15.496;2023-12-20T16:33:32;8.98;;;4.10;;
25721;SDS011;13578;53.450;15.496;2023-12-20T16:36:49;10.25;;;4.53;;
25721;SDS011;13578;53.450;15.496;2023-12-20T16:39:50;4.40;;;4.00;;
25721;SDS011;13578;53.450;15.496;2023-12-20T16:42:51;7.43;;;4.95;;
25721;SDS011;13578;53.450;15.496;2023-12-20T16:45:52;6.25;;;3.80;;
25721;SDS011;13578;53.450;15.496;2023-12-20T16:48:53;5.53;;;4.60;;
25721;SDS011;13578;53.450;15.496;2023-12-20T16:51:54;9.52;;;4.30;;
25721;SDS011;13578;53.450;15.496;2023-12-20T16:54:54;12.98;;;5.07;;
25721;SDS011;13578;53.450;15.496;2023-12-20T16:57:55;9.55;;;4.15;;
25721;SDS011;13578;53.450;15.496;2023-12-20T17:00:56;6.00;;;4.25;;
25721;SDS011;13578;53.450;15.496;2023-12-20T17:03:57;12.48;;;5.50;;
25721;SDS011;13578;53.450;15.496;2023-12-20T17:06:58;11.95;;;5.03;;
25721;SDS011;13578;53.450;15.496;2023-12-20T17:09:59;10.88;;;4.38;;
25721;SDS011;13578;53.450;15.496;2023-12-20T17:13:00;10.38;;;4.40;;
25721;SDS011;13578;53.450;15.496;2023-12-20T17:16:00;10.15;;;4.43;;
25721;SDS011;13578;53.450;15.496;2023-12-20T17:19:01;7.55;;;4.25;;
25721;SDS011;13578;53.450;15.496;2023-12-20T17:22:04;17.50;;;5.38;;
25721;SDS011;13578;53.450;15.496;2023-12-20T17:25:06;30.92;;;5.70;;
25721;SDS011;13578;53.450;15.496;2023-12-20T17:28:06;6.35;;;5.00;;
25721;SDS011;13578;53.450;15.496;2023-12-20T17:31:07;16.08;;;5.32;;
25721;SDS011;13578;53.450;15.496;2023-12-20T17:34:10;4.78;;;4.10;;
25721;SDS011;13578;53.450;15.496;2023-12-20T17:37:11;12.10;;;5.35;;
25721;SDS011;13578;53.450;15.496;2023-12-20T17:40:12;7.68;;;5.47;;
25721;SDS011;13578;53.450;15.496;2023-12-20T17:43:12;14.68;;;5.13;;
25721;SDS011;13578;53.450;15.496;2023-12-20T17:46:13;17.30;;;5.60;;
25721;SDS011;13578;53.450;15.496;2023-12-20T17:49:14;17.83;;;4.63;;